sensor_id;sensor_type;location;lat;lon;timestamp;pressure;altitude;pressure_sealevel;temperature;humidity
69855;BME280;57146;48.140;16.304;2023-04-25T00:00:25;98616.03;;;10.05;69.16
69855;BME280;57146;48.140;16.304;2023-04-25T00:03:17;98615.28;;;10.05;69.29
69855;BME280;57146;48.140;16.304;2023-04-25T00:05:45;98610.34;;;10.03;69.15
69855;BME280;57146;48.140;16.304;2023-04-25T00:08:13;98620.84;;;10.03;68.86
69855;BME280;57146;48.140;16.304;2023-04-25T00:10:43;98614.66;;;9.99;69.22
69855;BME280;57146;48.140;16.304;2023-04-25T00:13:09;98613.88;;;9.99;69.43
69855;BME280;57146;48.140;16.304;2023-04-25T00:15:40;98619.28;;;10.02;68.75
69855;BME280;57146;48.140;16.304;2023-04-25T00:18:07;98611.41;;;10.02;68.75
69855;BME280;57146;48.140;16.304;2023-04-25T00:20:35;98609.88;;;10.01;68.58
69855;BME280;57146;48.140;16.304;2023-04-25T00:23:02;98612.34;;;9.98;68.96
69855;BME280;57146;48.140;16.304;2023-04-25T00:25:29;98606.59;;;9.96;69.08
69855;BME280;57146;48.140;16.304;2023-04-25T00:27:56;98618.53;;;9.93;69.27
69855;BME280;57146;48.140;16.304;2023-04-25T00:30:23;98604.63;;;9.93;69.30
69855;BME280;57146;48.140;16.304;2023-04-25T00:32:50;98602.63;;;9.90;69.01
69855;BME280;57146;48.140;16.304;2023-04-25T00:35:18;98615.75;;;9.90;68.68
69855;BME280;57146;48.140;16.304;2023-04-25T00:37:46;98601.53;;;9.91;69.05
69855;BME280;57146;48.140;16.304;2023-04-25T00:40:14;98601.53;;;9.91;68.79
69855;BME280;57146;48.140;16.304;2023-04-25T00:42:44;98601.53;;;9.91;68.98
69855;BME280;57146;48.140;16.304;2023-04-25T00:45:13;98598.75;;;9.87;68.79
69855;BME280;57146;48.140;16.304;2023-04-25T00:47:41;98605.72;;;9.83;68.81
69855;BME280;57146;48.140;16.304;2023-04-25T00:50:10;98615.59;;;9.86;68.79
69855;BME280;57146;48.140;16.304;2023-04-25T00:52:41;98610.63;;;9.84;68.48
69855;BME280;57146;48.140;16.304;2023-04-25T00:55:11;98611.41;;;9.85;68.05
69855;BME280;57146;48.140;16.304;2023-04-25T00:57:42;98608.00;;;9.84;68.06
69855;BME280;57146;48.140;16.304;2023-04-25T01:00:12;98607.09;;;9.80;68.81
69855;BME280;57146;48.140;16.304;2023-04-25T01:02:41;98607.09;;;9.80;68.29
69855;BME280;57146;48.140;16.304;2023-04-25T01:05:08;98613.59;;;9.83;68.60
69855;BME280;57146;48.140;16.304;2023-04-25T01:07:36;98606.00;;;9.81;68.46
69855;BME280;57146;48.140;16.304;2023-04-25T01:10:05;98603.38;;;9.81;68.30
69855;BME280;57146;48.140;16.304;2023-04-25T01:12:36;98603.38;;;9.81;68.14
69855;BME280;57146;48.140;16.304;2023-04-25T01:15:04;98601.84;;;9.80;67.90
69855;BME280;57146;48.140;16.304;2023-04-25T01:17:57;98604.03;;;9.78;67.95
69855;BME280;57146;48.140;16.304;2023-04-25T01:20:26;98610.66;;;9.76;68.15
69855;BME280;57146;48.140;16.304;2023-04-25T01:22:57;98596.75;;;9.75;67.89
69855;BME280;57146;48.140;16.304;2023-04-25T01:25:25;98605.25;;;9.72;68.50
69855;BME280;57146;48.140;16.304;2023-04-25T01:28:17;98607.09;;;9.72;68.31
69855;BME280;57146;48.140;16.304;2023-04-25T01:30:47;98606.03;;;9.73;68.24
69855;BME280;57146;48.140;16.304;2023-04-25T01:33:15;98600.28;;;9.71;68.38
69855;BME280;57146;48.140;16.304;2023-04-25T01:35:43;98598.31;;;9.68;68.35
69855;BME280;57146;48.140;16.304;2023-04-25T01:38:11;98603.38;;;9.73;68.13
69855;BME280;57146;48.140;16.304;2023-04-25T01:40:40;98604.94;;;9.74;68.30
69855;BME280;57146;48.140;16.304;2023-04-25T01:43:08;98604.47;;;9.72;68.22
69855;BME280;57146;48.140;16.304;2023-04-25T01:45:38;98601.38;;;9.70;68.45
69855;BME280;57146;48.140;16.304;2023-04-25T01:48:06;98596.44;;;9.68;68.52
69855;BME280;57146;48.140;16.304;2023-04-25T01:50:38;98601.84;;;9.72;68.24
69855;BME280;57146;48.140;16.304;2023-04-25T01:53:06;98603.72;;;9.71;68.58
69855;BME280;57146;48.140;16.304;2023-04-25T01:55:35;98604.63;;;9.67;68.77
69855;BME280;57146;48.140;16.304;2023-04-25T01:58:09;98606.78;;;9.65;68.53
69855;BME280;57146;48.140;16.304;2023-04-25T02:00:54;98611.56;;;9.63;69.11
69855;BME280;57146;48.140;16.304;2023-04-25T02:03:23;98605.06;;;9.60;68.93
69855;BME280;57146;48.140;16.304;2023-04-25T02:05:51;98610.66;;;9.58;68.73
69855;BME280;57146;48.140;16.304;2023-04-25T02:08:20;98604.16;;;9.56;69.09
69855;BME280;57146;48.140;16.304;2023-04-25T02:10:54;98596.88;;;9.53;69.14
69855;BME280;57146;48.140;16.304;2023-04-25T02:13:22;98602.13;;;9.53;69.32
69855;BME280;57146;48.140;16.304;2023-04-25T02:16:12;98600.91;;;9.50;69.51
69855;BME280;57146;48.140;16.304;2023-04-25T02:18:40;98592.25;;;9.50;69.61
69855;BME280;57146;48.140;16.304;2023-04-25T02:21:07;98596.72;;;9.49;69.42
69855;BME280;57146;48.140;16.304;2023-04-25T02:23:35;98596.72;;;9.49;69.26
69855;BME280;57146;48.140;16.304;2023-04-25T02:26:02;98603.06;;;9.48;69.61
69855;BME280;57146;48.140;16.304;2023-04-25T02:28:30;98597.66;;;9.45;69.56
69855;BME280;57146;48.140;16.304;2023-04-25T02:30:57;98598.44;;;9.45;69.77
69855;BME280;57146;48.140;16.304;2023-04-25T02:33:25;98597.22;;;9.43;69.85
69855;BME280;57146;48.140;16.304;2023-04-25T02:35:52;98592.25;;;9.32;70.46
69855;BME280;57146;48.140;16.304;2023-04-25T02:38:21;98594.56;;;9.34;69.94
69855;BME280;57146;48.140;16.304;2023-04-25T02:40:48;98600.13;;;9.32;69.80
69855;BME280;57146;48.140;16.304;2023-04-25T02:43:17;98598.56;;;9.31;70.23
69855;BME280;57146;48.140;16.304;2023-04-25T02:45:44;98584.50;;;9.27;70.02
69855;BME280;57146;48.140;16.304;2023-04-25T02:48:12;98596.38;;;9.25;69.87
69855;BME280;57146;48.140;16.304;2023-04-25T02:50:39;98584.06;;;9.25;69.98
69855;BME280;57146;48.140;16.304;2023-04-25T02:53:08;98590.06;;;9.26;69.85
69855;BME280;57146;48.140;16.304;2023-04-25T02:55:42;98581.72;;;9.24;69.92
69855;BME280;57146;48.140;16.304;2023-04-25T02:58:10;98586.50;;;9.22;69.76
69855;BME280;57146;48.140;16.304;2023-04-25T03:00:43;98585.25;;;9.19;69.73
69855;BME280;57146;48.140;16.304;2023-04-25T03:03:11;98581.09;;;9.18;69.43
69855;BME280;57146;48.140;16.304;2023-04-25T03:05:38;98581.25;;;9.22;69.42
69855;BME280;57146;48.140;16.304;2023-04-25T03:08:06;98585.25;;;9.19;69.71
69855;BME280;57146;48.140;16.304;2023-04-25T03:10:37;98575.69;;;9.15;69.60
69855;BME280;57146;48.140;16.304;2023-04-25T03:13:06;98576.47;;;9.15;69.83
69855;BME280;57146;48.140;16.304;2023-04-25T03:15:35;98580.94;;;9.15;69.61
69855;BME280;57146;48.140;16.304;2023-04-25T03:18:02;98575.53;;;9.11;69.77
69855;BME280;57146;48.140;16.304;2023-04-25T03:20:29;98578.44;;;9.09;70.23
69855;BME280;57146;48.140;16.304;2023-04-25T03:23:02;98583.53;;;9.06;69.95
69855;BME280;57146;48.140;16.304;2023-04-25T03:25:29;98590.31;;;9.07;69.64
69855;BME280;57146;48.140;16.304;2023-04-25T03:27:56;98586.00;;;9.02;70.07
69855;BME280;57146;48.140;16.304;2023-04-25T03:30:23;98578.72;;;8.99;69.78
69855;BME280;57146;48.140;16.304;2023-04-25T03:32:50;98586.31;;;9.01;69.84
69855;BME280;57146;48.140;16.304;2023-04-25T03:35:17;98585.53;;;9.00;70.30
69855;BME280;57146;48.140;16.304;2023-04-25T03:37:45;98596.66;;;8.97;70.06
69855;BME280;57146;48.140;16.304;2023-04-25T03:40:18;98598.19;;;8.98;69.94
69855;BME280;57146;48.140;16.304;2023-04-25T03:43:05;98600.81;;;8.98;69.61
69855;BME280;57146;48.140;16.304;2023-04-25T03:45:33;98598.78;;;8.95;69.39
69855;BME280;57146;48.140;16.304;2023-04-25T03:48:00;98605.91;;;8.95;69.64
69855;BME280;57146;48.140;16.304;2023-04-25T03:50:30;98605.91;;;8.95;69.35
69855;BME280;57146;48.140;16.304;2023-04-25T03:52:59;98603.09;;;8.91;69.88
69855;BME280;57146;48.140;16.304;2023-04-25T03:55:30;98609.13;;;8.92;69.44
69855;BME280;57146;48.140;16.304;2023-04-25T03:57:58;98603.72;;;8.88;69.33
69855;BME280;57146;48.140;16.304;2023-04-25T04:00:27;98611.31;;;8.90;69.36
69855;BME280;57146;48.140;16.304;2023-04-25T04:02:53;98617.59;;;8.88;69.59
69855;BME280;57146;48.140;16.304;2023-04-25T04:05:22;98608.97;;;8.88;68.88
69855;BME280;57146;48.140;16.304;2023-04-25T04:07:54;98612.19;;;8.85;69.02
69855;BME280;57146;48.140;16.304;2023-04-25T04:10:22;98614.66;;;8.81;69.16
69855;BME280;57146;48.140;16.304;2023-04-25T04:12:50;98618.34;;;8.80;68.85
69855;BME280;57146;48.140;16.304;2023-04-25T04:15:17;98617.28;;;8.81;69.62
69855;BME280;57146;48.140;16.304;2023-04-25T04:17:46;98619.44;;;8.79;69.21
69855;BME280;57146;48.140;16.304;2023-04-25T04:20:14;98621.91;;;8.76;69.39
69855;BME280;57146;48.140;16.304;2023-04-25T04:22:41;98624.81;;;8.74;69.48
69855;BME280;57146;48.140;16.304;2023-04-25T04:25:11;98628.53;;;8.73;69.47
69855;BME280;57146;48.140;16.304;2023-04-25T04:27:59;98623.75;;;8.75;69.14
69855;BME280;57146;48.140;16.304;2023-04-25T04:31:00;98629.00;;;8.75;69.09
69855;BME280;57146;48.140;16.304;2023-04-25T04:33:27;98626.50;;;8.70;69.19
69855;BME280;57146;48.140;16.304;2023-04-25T04:35:58;98618.16;;;8.68;69.09
69855;BME280;57146;48.140;16.304;2023-04-25T04:38:25;98633.91;;;8.68;69.32
69855;BME280;57146;48.140;16.304;2023-04-25T04:40:55;98628.84;;;8.72;68.93
69855;BME280;57146;48.140;16.304;2023-04-25T04:43:34;98629.13;;;8.70;68.97
69855;BME280;57146;48.140;16.304;2023-04-25T04:46:24;98632.06;;;8.69;69.07
69855;BME280;57146;48.140;16.304;2023-04-25T04:49:11;98636.06;;;8.66;69.07
69855;BME280;57146;48.140;16.304;2023-04-25T04:51:56;98633.75;;;8.65;69.09
69855;BME280;57146;48.140;16.304;2023-04-25T04:54:38;98635.91;;;8.71;69.60
69855;BME280;57146;48.140;16.304;2023-04-25T04:57:31;98638.41;;;8.76;69.07
69855;BME280;57146;48.140;16.304;2023-04-25T05:00:30;98644.00;;;8.83;69.21
69855;BME280;57146;48.140;16.304;2023-04-25T05:03:11;98641.38;;;8.83;69.21
69855;BME280;57146;48.140;16.304;2023-04-25T05:05:52;98639.50;;;8.75;69.41
69855;BME280;57146;48.140;16.304;2023-04-25T05:08:47;98635.03;;;8.76;68.96
69855;BME280;57146;48.140;16.304;2023-04-25T05:11:44;98642.72;;;8.72;69.03
69855;BME280;57146;48.140;16.304;2023-04-25T05:14:29;98643.91;;;8.66;69.04
69855;BME280;57146;48.140;16.304;2023-04-25T05:17:06;98639.16;;;8.68;69.21
69855;BME280;57146;48.140;16.304;2023-04-25T05:19:45;98639.88;;;8.60;69.49
69855;BME280;57146;48.140;16.304;2023-04-25T05:22:23;98635.41;;;8.60;69.90
69855;BME280;57146;48.140;16.304;2023-04-25T05:25:10;98644.78;;;8.53;70.08
69855;BME280;57146;48.140;16.304;2023-04-25T05:27:50;98638.13;;;8.47;70.40
69855;BME280;57146;48.140;16.304;2023-04-25T05:30:29;98638.59;;;8.49;70.26
69855;BME280;57146;48.140;16.304;2023-04-25T05:33:18;98640.28;;;8.53;70.56
69855;BME280;57146;48.140;16.304;2023-04-25T05:35:46;98628.44;;;8.56;70.84
69855;BME280;57146;48.140;16.304;2023-04-25T05:38:13;98621.66;;;8.55;70.34
69855;BME280;57146;48.140;16.304;2023-04-25T05:41:01;98625.97;;;8.59;70.69
69855;BME280;57146;48.140;16.304;2023-04-25T05:43:41;98625.25;;;8.68;70.48
69855;BME280;57146;48.140;16.304;2023-04-25T05:46:19;98623.28;;;8.73;70.14
69855;BME280;57146;48.140;16.304;2023-04-25T05:49:13;98620.66;;;8.82;70.10
69855;BME280;57146;48.140;16.304;2023-04-25T05:51:56;98619.03;;;8.95;69.87
69855;BME280;57146;48.140;16.304;2023-04-25T05:54:41;98626.31;;;9.06;68.94
69855;BME280;57146;48.140;16.304;2023-04-25T05:57:08;98611.66;;;9.14;69.06
69855;BME280;57146;48.140;16.304;2023-04-25T05:59:35;98619.13;;;9.29;68.32
69855;BME280;57146;48.140;16.304;2023-04-25T06:02:02;98615.28;;;9.44;67.59
69855;BME280;57146;48.140;16.304;2023-04-25T06:04:32;98610.97;;;9.57;67.08
69855;BME280;57146;48.140;16.304;2023-04-25T06:07:00;98619.31;;;9.68;67.26
69855;BME280;57146;48.140;16.304;2023-04-25T06:09:27;98615.59;;;9.86;66.51
69855;BME280;57146;48.140;16.304;2023-04-25T06:11:54;98605.53;;;9.97;65.33
69855;BME280;57146;48.140;16.304;2023-04-25T06:14:21;98608.91;;;10.06;65.73
69855;BME280;57146;48.140;16.304;2023-04-25T06:16:49;98616.50;;;10.07;64.60
69855;BME280;57146;48.140;16.304;2023-04-25T06:19:16;98602.41;;;10.12;64.66
69855;BME280;57146;48.140;16.304;2023-04-25T06:21:44;98605.81;;;10.21;67.32
69855;BME280;57146;48.140;16.304;2023-04-25T06:24:11;98609.84;;;10.27;64.44
69855;BME280;57146;48.140;16.304;2023-04-25T06:26:39;98607.97;;;10.28;63.30
69855;BME280;57146;48.140;16.304;2023-04-25T06:29:06;98605.81;;;10.30;63.48
69855;BME280;57146;48.140;16.304;2023-04-25T06:31:33;98610.31;;;10.29;64.26
69855;BME280;57146;48.140;16.304;2023-04-25T06:34:01;98605.00;;;10.38;63.27
69855;BME280;57146;48.140;16.304;2023-04-25T06:36:30;98606.41;;;10.44;64.26
69855;BME280;57146;48.140;16.304;2023-04-25T06:39:04;98600.47;;;10.56;61.82
69855;BME280;57146;48.140;16.304;2023-04-25T06:41:32;98602.13;;;10.69;61.94
69855;BME280;57146;48.140;16.304;2023-04-25T06:44:01;98599.78;;;10.76;62.49
69855;BME280;57146;48.140;16.304;2023-04-25T06:46:32;98598.19;;;10.84;60.87
69855;BME280;57146;48.140;16.304;2023-04-25T06:48:59;98593.84;;;10.88;60.82
69855;BME280;57146;48.140;16.304;2023-04-25T06:51:26;98590.41;;;10.96;60.78
69855;BME280;57146;48.140;16.304;2023-04-25T06:53:53;98595.47;;;11.01;60.18
69855;BME280;57146;48.140;16.304;2023-04-25T06:56:35;98594.97;;;11.08;59.53
69855;BME280;57146;48.140;16.304;2023-04-25T06:59:07;98599.75;;;11.15;59.13
69855;BME280;57146;48.140;16.304;2023-04-25T07:01:37;98588.09;;;11.16;59.80
69855;BME280;57146;48.140;16.304;2023-04-25T07:04:09;98593.50;;;11.19;59.22
69855;BME280;57146;48.140;16.304;2023-04-25T07:06:42;98594.88;;;11.25;58.85
69855;BME280;57146;48.140;16.304;2023-04-25T07:09:11;98590.72;;;11.24;58.95
69855;BME280;57146;48.140;16.304;2023-04-25T07:11:42;98586.19;;;11.25;58.41
69855;BME280;57146;48.140;16.304;2023-04-25T07:14:08;98579.06;;;11.25;58.37
69855;BME280;57146;48.140;16.304;2023-04-25T07:16:36;98575.47;;;11.30;58.39
69855;BME280;57146;48.140;16.304;2023-04-25T07:19:03;98575.59;;;11.34;58.86
69855;BME280;57146;48.140;16.304;2023-04-25T07:21:30;98574.31;;;11.40;58.88
69855;BME280;57146;48.140;16.304;2023-04-25T07:24:00;98568.53;;;11.46;58.47
69855;BME280;57146;48.140;16.304;2023-04-25T07:26:32;98573.94;;;11.50;59.26
69855;BME280;57146;48.140;16.304;2023-04-25T07:29:25;98573.41;;;11.57;56.60
69855;BME280;57146;48.140;16.304;2023-04-25T07:31:52;98570.56;;;11.62;57.86
69855;BME280;57146;48.140;16.304;2023-04-25T07:34:20;98577.00;;;11.73;57.46
69855;BME280;57146;48.140;16.304;2023-04-25T07:36:48;98569.22;;;11.77;57.06
69855;BME280;57146;48.140;16.304;2023-04-25T07:39:15;98574.44;;;11.85;57.57
69855;BME280;57146;48.140;16.304;2023-04-25T07:41:42;98561.16;;;11.94;58.46
69855;BME280;57146;48.140;16.304;2023-04-25T07:44:15;98564.94;;;12.05;57.25
69855;BME280;57146;48.140;16.304;2023-04-25T07:46:43;98565.75;;;12.18;57.29
69855;BME280;57146;48.140;16.304;2023-04-25T07:49:10;98566.28;;;12.23;56.90
69855;BME280;57146;48.140;16.304;2023-04-25T07:51:38;98559.94;;;12.25;56.75
69855;BME280;57146;48.140;16.304;2023-04-25T07:54:12;98559.94;;;12.25;56.63
69855;BME280;57146;48.140;16.304;2023-04-25T07:56:44;98558.94;;;12.29;56.32
69855;BME280;57146;48.140;16.304;2023-04-25T07:59:25;98555.97;;;12.31;57.18
69855;BME280;57146;48.140;16.304;2023-04-25T08:01:55;98558.59;;;12.31;55.76
69855;BME280;57146;48.140;16.304;2023-04-25T08:04:21;98555.44;;;12.37;56.20
69855;BME280;57146;48.140;16.304;2023-04-25T08:06:53;98559.28;;;12.40;55.88
69855;BME280;57146;48.140;16.304;2023-04-25T08:09:49;98546.19;;;12.43;56.29
69855;BME280;57146;48.140;16.304;2023-04-25T08:12:25;98546.97;;;12.44;54.98
69855;BME280;57146;48.140;16.304;2023-04-25T08:14:52;98539.81;;;12.44;54.85
69855;BME280;57146;48.140;16.304;2023-04-25T08:17:19;98532.66;;;12.45;55.00
69855;BME280;57146;48.140;16.304;2023-04-25T08:19:46;98541.38;;;12.45;55.42
69855;BME280;57146;48.140;16.304;2023-04-25T08:22:22;98549.28;;;12.45;54.62
69855;BME280;57146;48.140;16.304;2023-04-25T08:24:54;98533.22;;;12.51;56.33
69855;BME280;57146;48.140;16.304;2023-04-25T08:27:24;98527.84;;;12.59;57.15
69855;BME280;57146;48.140;16.304;2023-04-25T08:29:51;98523.09;;;12.65;56.29
69855;BME280;57146;48.140;16.304;2023-04-25T08:32:19;98518.28;;;12.67;55.95
69855;BME280;57146;48.140;16.304;2023-04-25T08:35:01;98527.94;;;12.75;56.35
69855;BME280;57146;48.140;16.304;2023-04-25T08:37:30;98518.50;;;12.74;55.57
69855;BME280;57146;48.140;16.304;2023-04-25T08:40:11;98527.06;;;12.71;54.55
69855;BME280;57146;48.140;16.304;2023-04-25T08:42:48;98512.09;;;12.75;56.24
69855;BME280;57146;48.140;16.304;2023-04-25T08:45:18;98528.06;;;12.79;55.67
69855;BME280;57146;48.140;16.304;2023-04-25T08:47:47;98518.50;;;12.74;55.51
69855;BME280;57146;48.140;16.304;2023-04-25T08:50:14;98528.59;;;12.72;55.92
69855;BME280;57146;48.140;16.304;2023-04-25T08:52:46;98529.91;;;12.66;54.63
69855;BME280;57146;48.140;16.304;2023-04-25T08:55:15;98524.00;;;12.57;55.29
69855;BME280;57146;48.140;16.304;2023-04-25T08:57:42;98533.56;;;12.49;57.19
69855;BME280;57146;48.140;16.304;2023-04-25T09:00:11;98536.41;;;12.44;57.11
69855;BME280;57146;48.140;16.304;2023-04-25T09:02:42;98531.03;;;12.40;57.78
69855;BME280;57146;48.140;16.304;2023-04-25T09:05:13;98541.34;;;12.33;57.74
69855;BME280;57146;48.140;16.304;2023-04-25T09:07:41;98533.66;;;12.28;57.60
69855;BME280;57146;48.140;16.304;2023-04-25T09:10:08;98538.16;;;12.28;58.56
69855;BME280;57146;48.140;16.304;2023-04-25T09:12:36;98548.28;;;12.26;58.22
69855;BME280;57146;48.140;16.304;2023-04-25T09:15:10;98539.25;;;12.27;58.57
69855;BME280;57146;48.140;16.304;2023-04-25T09:17:58;98540.69;;;12.24;57.50
69855;BME280;57146;48.140;16.304;2023-04-25T09:20:43;98561.47;;;12.26;59.39
69855;BME280;57146;48.140;16.304;2023-04-25T09:23:29;98561.41;;;12.01;59.86
69855;BME280;57146;48.140;16.304;2023-04-25T09:25:56;98565.81;;;11.76;61.95
69855;BME280;57146;48.140;16.304;2023-04-25T09:28:25;98572.84;;;11.51;63.04
69855;BME280;57146;48.140;16.304;2023-04-25T09:30:57;98569.94;;;11.44;63.87
69855;BME280;57146;48.140;16.304;2023-04-25T09:33:32;98572.78;;;11.39;66.28
69855;BME280;57146;48.140;16.304;2023-04-25T09:36:08;98584.41;;;11.38;66.17
69855;BME280;57146;48.140;16.304;2023-04-25T09:38:55;98583.13;;;11.44;66.02
69855;BME280;57146;48.140;16.304;2023-04-25T09:41:37;98578.31;;;11.46;66.94
69855;BME280;57146;48.140;16.304;2023-04-25T09:44:05;98577.25;;;11.38;68.26
69855;BME280;57146;48.140;16.304;2023-04-25T09:46:35;98579.06;;;11.46;69.37
69855;BME280;57146;48.140;16.304;2023-04-25T09:49:07;98576.88;;;11.48;69.04
69855;BME280;57146;48.140;16.304;2023-04-25T09:51:58;98575.94;;;11.53;69.11
69855;BME280;57146;48.140;16.304;2023-04-25T09:54:36;98576.50;;;11.59;69.55
69855;BME280;57146;48.140;16.304;2023-04-25T09:57:19;98570.44;;;11.58;70.05
69855;BME280;57146;48.140;16.304;2023-04-25T09:59:49;98557.84;;;11.64;69.61
69855;BME280;57146;48.140;16.304;2023-04-25T10:02:18;98564.44;;;11.70;68.35
69855;BME280;57146;48.140;16.304;2023-04-25T10:04:50;98565.03;;;11.75;67.03
69855;BME280;57146;48.140;16.304;2023-04-25T10:07:26;98568.66;;;11.71;64.40
69855;BME280;57146;48.140;16.304;2023-04-25T10:10:03;98572.44;;;11.61;63.25
69855;BME280;57146;48.140;16.304;2023-04-25T10:12:32;98606.50;;;11.24;62.31
69855;BME280;57146;48.140;16.304;2023-04-25T10:14:59;98573.84;;;10.96;61.91
69855;BME280;57146;48.140;16.304;2023-04-25T10:17:27;98580.72;;;10.79;64.53
69855;BME280;57146;48.140;16.304;2023-04-25T10:19:55;98598.44;;;10.62;65.46
69855;BME280;57146;48.140;16.304;2023-04-25T10:24:55;98612.97;;;10.03;72.30
69855;BME280;57146;48.140;16.304;2023-04-25T10:27:23;98608.31;;;9.92;74.55
69855;BME280;57146;48.140;16.304;2023-04-25T10:30:09;98581.91;;;9.79;72.49
69855;BME280;57146;48.140;16.304;2023-04-25T10:32:37;98566.41;;;9.78;73.33
69855;BME280;57146;48.140;16.304;2023-04-25T10:35:15;98541.38;;;9.80;73.82
69855;BME280;57146;48.140;16.304;2023-04-25T10:38:13;98538.91;;;9.93;72.54
69855;BME280;57146;48.140;16.304;2023-04-25T10:40:40;98531.94;;;9.97;69.41
69855;BME280;57146;48.140;16.304;2023-04-25T10:48:51;98524.56;;;10.37;70.87
69855;BME280;57146;48.140;16.304;2023-04-25T10:53:56;98516.59;;;10.54;69.97
69855;BME280;57146;48.140;16.304;2023-04-25T10:56:26;98512.38;;;10.62;66.20
69855;BME280;57146;48.140;16.304;2023-04-25T10:59:10;98501.47;;;10.72;67.58
69855;BME280;57146;48.140;16.304;2023-04-25T11:01:42;98505.91;;;10.81;68.56
69855;BME280;57146;48.140;16.304;2023-04-25T11:04:29;98493.78;;;10.88;70.79
69855;BME280;57146;48.140;16.304;2023-04-25T11:09:35;98476.00;;;11.06;73.29
69855;BME280;57146;48.140;16.304;2023-04-25T11:12:03;98468.72;;;11.24;74.42
69855;BME280;57146;48.140;16.304;2023-04-25T11:14:30;98473.19;;;11.44;74.81
69855;BME280;57146;48.140;16.304;2023-04-25T11:16:58;98474.16;;;11.73;74.90
69855;BME280;57146;48.140;16.304;2023-04-25T11:19:27;98477.66;;;11.98;72.04
69855;BME280;57146;48.140;16.304;2023-04-25T11:21:58;98483.31;;;12.21;71.30
69855;BME280;57146;48.140;16.304;2023-04-25T11:24:33;98497.13;;;12.30;64.11
69855;BME280;57146;48.140;16.304;2023-04-25T11:27:04;98519.34;;;12.29;64.85
69855;BME280;57146;48.140;16.304;2023-04-25T11:29:32;98545.28;;;12.03;68.71
69855;BME280;57146;48.140;16.304;2023-04-25T11:32:00;98571.28;;;11.71;72.40
69855;BME280;57146;48.140;16.304;2023-04-25T11:34:28;98584.22;;;11.43;74.13
69855;BME280;57146;48.140;16.304;2023-04-25T11:36:56;98594.00;;;11.13;72.77
69855;BME280;57146;48.140;16.304;2023-04-25T11:39:24;98598.81;;;10.81;73.64
69855;BME280;57146;48.140;16.304;2023-04-25T11:41:52;98599.13;;;10.50;76.32
69855;BME280;57146;48.140;16.304;2023-04-25T11:44:19;98613.84;;;10.34;74.48
69855;BME280;57146;48.140;16.304;2023-04-25T11:46:46;98616.34;;;10.21;75.50
69855;BME280;57146;48.140;16.304;2023-04-25T11:49:14;98618.06;;;10.00;75.88
69855;BME280;57146;48.140;16.304;2023-04-25T11:51:42;98620.84;;;9.95;76.61
69855;BME280;57146;48.140;16.304;2023-04-25T11:54:10;98595.78;;;9.89;75.98
69855;BME280;57146;48.140;16.304;2023-04-25T11:56:41;98579.88;;;9.94;78.07
69855;BME280;57146;48.140;16.304;2023-04-25T11:59:09;98582.31;;;9.99;77.13
69855;BME280;57146;48.140;16.304;2023-04-25T12:01:40;98583.69;;;10.14;76.07
69855;BME280;57146;48.140;16.304;2023-04-25T12:06:43;98577.34;;;10.23;77.14
69855;BME280;57146;48.140;16.304;2023-04-25T12:09:12;98565.44;;;10.26;76.34
69855;BME280;57146;48.140;16.304;2023-04-25T12:11:46;98565.09;;;10.36;79.02
69855;BME280;57146;48.140;16.304;2023-04-25T12:14:28;98568.59;;;10.49;78.62
69855;BME280;57146;48.140;16.304;2023-04-25T12:16:57;98555.97;;;10.72;73.46
69855;BME280;57146;48.140;16.304;2023-04-25T12:19:25;98552.50;;;10.89;70.49
69855;BME280;57146;48.140;16.304;2023-04-25T12:21:52;98549.31;;;11.04;71.28
69855;BME280;57146;48.140;16.304;2023-04-25T12:24:26;98539.47;;;11.13;72.54
69855;BME280;57146;48.140;16.304;2023-04-25T12:27:05;98545.25;;;11.27;72.51
69855;BME280;57146;48.140;16.304;2023-04-25T12:29:33;98533.25;;;11.39;71.22
69855;BME280;57146;48.140;16.304;2023-04-25T12:32:16;98541.22;;;11.51;69.03
69855;BME280;57146;48.140;16.304;2023-04-25T12:34:43;98532.44;;;11.59;68.18
69855;BME280;57146;48.140;16.304;2023-04-25T12:37:10;98531.16;;;11.65;67.61
69855;BME280;57146;48.140;16.304;2023-04-25T12:39:37;98549.44;;;11.70;65.96
69855;BME280;57146;48.140;16.304;2023-04-25T12:42:04;98541.06;;;11.68;64.58
69855;BME280;57146;48.140;16.304;2023-04-25T12:44:35;98539.97;;;11.69;64.77
69855;BME280;57146;48.140;16.304;2023-04-25T12:47:01;98533.16;;;11.68;67.17
69855;BME280;57146;48.140;16.304;2023-04-25T12:49:28;98533.72;;;11.74;63.44
69855;BME280;57146;48.140;16.304;2023-04-25T12:51:55;98534.16;;;11.76;63.73
69855;BME280;57146;48.140;16.304;2023-04-25T12:54:22;98521.84;;;11.68;62.34
69855;BME280;57146;48.140;16.304;2023-04-25T12:56:49;98524.03;;;11.66;63.07
69855;BME280;57146;48.140;16.304;2023-04-25T12:59:16;98522.94;;;11.67;61.24
69855;BME280;57146;48.140;16.304;2023-04-25T13:01:43;98516.56;;;11.68;62.30
69855;BME280;57146;48.140;16.304;2023-04-25T13:04:10;98511.53;;;11.75;63.26
69855;BME280;57146;48.140;16.304;2023-04-25T13:06:37;98503.28;;;11.77;60.61
69855;BME280;57146;48.140;16.304;2023-04-25T13:09:04;98504.63;;;11.83;59.40
69855;BME280;57146;48.140;16.304;2023-04-25T13:11:31;98507.53;;;11.90;59.95
69855;BME280;57146;48.140;16.304;2023-04-25T13:13:58;98502.63;;;12.01;57.62
69855;BME280;57146;48.140;16.304;2023-04-25T13:16:24;98498.44;;;12.12;57.28
69855;BME280;57146;48.140;16.304;2023-04-25T13:18:51;98506.16;;;12.17;58.76
69855;BME280;57146;48.140;16.304;2023-04-25T13:21:18;98507.28;;;12.28;58.79
69855;BME280;57146;48.140;16.304;2023-04-25T13:23:45;98506.03;;;12.38;57.20
69855;BME280;57146;48.140;16.304;2023-04-25T13:26:12;98508.72;;;12.50;57.62
69855;BME280;57146;48.140;16.304;2023-04-25T13:28:38;98507.50;;;12.60;58.51
69855;BME280;57146;48.140;16.304;2023-04-25T13:31:06;98513.53;;;12.73;57.79
69855;BME280;57146;48.140;16.304;2023-04-25T13:33:33;98509.22;;;12.80;55.78